createdAt,value
2019-05-13T00:01:14.418Z,103502.50
2019-05-13T00:03:44.062Z,103499.06
2019-05-13T00:06:13.378Z,103492.01
2019-05-13T00:08:43.864Z,103493.53
2019-05-13T00:11:13.676Z,103489.91
2019-05-13T00:13:41.635Z,103497.14
2019-05-13T00:16:09.841Z,103492.48
2019-05-13T00:18:38.058Z,103500.72
2019-05-13T00:21:06.272Z,103494.72
2019-05-13T00:23:34.796Z,103498.33
2019-05-13T00:26:03.861Z,103504.69
2019-05-13T00:28:34.166Z,103499.20
2019-05-13T00:31:03.418Z,103503.46
2019-05-13T00:33:33.931Z,103502.09
2019-05-13T00:36:03.971Z,103501.40
2019-05-13T00:38:33.586Z,103503.45
2019-05-13T00:41:03.637Z,103511.37
2019-05-13T00:43:33.915Z,103510.68
2019-05-13T00:46:03.895Z,103507.94
2019-05-13T00:48:33.513Z,103515.13
2019-05-13T00:51:03.804Z,103511.19
2019-05-13T00:53:32.585Z,103518.37
2019-05-13T00:56:00.810Z,103516.17
2019-05-13T00:58:29.154Z,103511.69
2019-05-13T01:00:57.392Z,103510.83
2019-05-13T01:03:28.368Z,103518.73
2019-05-13T01:05:55.915Z,103512.88
2019-05-13T01:08:25.094Z,103512.73
2019-05-13T01:10:53.753Z,103511.17
2019-05-13T01:13:23.726Z,103507.56
2019-05-13T01:15:54.304Z,103508.42
2019-05-13T01:18:23.425Z,103508.25
2019-05-13T01:20:53.631Z,103510.30
2019-05-13T01:23:24.044Z,103509.11
2019-05-13T01:25:54.272Z,103506.54
2019-05-13T01:28:23.949Z,103504.80
2019-05-13T01:30:53.988Z,103506.35
2019-05-13T01:33:23.583Z,103510.30
2019-05-13T01:35:53.776Z,103510.80
2019-05-13T01:38:40.341Z,103504.13
2019-05-13T01:41:08.566Z,103504.98
2019-05-13T01:43:36.783Z,103498.95
2019-05-13T01:46:05.018Z,103500.86
2019-05-13T01:48:33.442Z,103501.88
2019-05-13T01:51:03.819Z,103499.98
2019-05-13T01:53:33.584Z,103499.98
2019-05-13T01:56:03.784Z,103501.68
2019-05-13T01:58:33.818Z,103507.17
2019-05-13T02:01:01.477Z,103510.28
2019-05-13T02:03:29.699Z,103499.30
2019-05-13T02:05:57.907Z,103514.39
2019-05-13T02:08:26.125Z,103508.55
2019-05-13T02:10:58.774Z,103512.33
2019-05-13T02:13:26.987Z,103514.21
2019-05-13T02:15:55.693Z,103515.06
2019-05-13T02:18:24.708Z,103521.06
2019-05-13T02:20:55.405Z,103517.45
2019-05-13T02:23:23.898Z,103527.23
2019-05-13T02:25:54.303Z,103521.05
2019-05-13T02:28:24.633Z,103522.42
2019-05-13T02:30:55.793Z,103525.67
2019-05-13T02:33:23.245Z,103526.35
2019-05-13T02:35:53.168Z,103528.41
2019-05-13T02:38:26.319Z,103532.52
2019-05-13T02:40:52.613Z,103530.12
2019-05-13T02:43:23.233Z,103532.88
2019-05-13T02:45:53.176Z,103525.14
2019-05-13T02:48:23.288Z,103529.94
2019-05-13T02:50:52.897Z,103524.45
2019-05-13T02:53:23.626Z,103525.82
2019-05-13T02:55:52.401Z,103530.25
2019-05-13T02:58:24.370Z,103537.98
2019-05-13T03:00:53.188Z,103537.80
2019-05-13T03:03:23.149Z,103532.49
2019-05-13T03:05:52.717Z,103519.41
2019-05-13T03:08:38.613Z,103543.28
2019-05-13T03:10:53.154Z,103553.75
2019-05-13T03:13:23.372Z,103545.20
2019-05-13T03:15:52.365Z,103549.83
2019-05-13T03:18:22.570Z,103553.08
2019-05-13T03:20:52.953Z,103551.20
2019-05-13T03:23:22.727Z,103546.39
2019-05-13T03:25:53.722Z,103557.19
2019-05-13T03:28:22.396Z,103555.49
2019-05-13T03:30:55.552Z,103551.70
2019-05-13T03:33:27.511Z,103553.77
2019-05-13T03:35:55.880Z,103553.59
2019-05-13T03:38:22.554Z,103562.02
2019-05-13T03:40:52.648Z,103556.73
2019-05-13T03:43:22.927Z,103560.69
2019-05-13T03:45:52.699Z,103560.03
2019-05-13T03:48:23.548Z,103561.78
2019-05-13T03:50:53.381Z,103569.70
2019-05-13T03:53:23.448Z,103559.56
2019-05-13T03:55:54.103Z,103562.88
2019-05-13T03:58:23.948Z,103564.01
2019-05-13T04:00:51.975Z,103426.05
2019-05-13T04:03:22.794Z,103559.16
2019-05-13T04:05:52.802Z,103562.26
2019-05-13T04:08:22.814Z,103576.45
2019-05-13T04:10:52.544Z,103575.31
2019-05-13T04:13:23.422Z,103580.71
2019-05-13T04:15:52.834Z,103563.75
2019-05-13T04:18:23.296Z,103574.88
2019-05-13T04:20:52.760Z,103572.84
2019-05-13T04:23:22.950Z,103572.70
2019-05-13T04:25:53.370Z,103576.52
2019-05-13T04:28:22.195Z,103579.77
2019-05-13T04:30:52.567Z,103580.19
2019-05-13T04:33:22.625Z,103573.42
2019-05-13T04:35:52.647Z,103567.86
2019-05-13T04:38:22.567Z,103575.05
2019-05-13T04:40:52.646Z,103582.66
2019-05-13T04:43:23.229Z,103576.00
2019-05-13T04:45:52.376Z,103579.28
2019-05-13T04:48:22.598Z,103580.83
2019-05-13T04:50:53.021Z,103581.88
2019-05-13T04:53:22.637Z,103585.64
2019-05-13T04:55:52.394Z,103586.48
2019-05-13T04:58:23.168Z,103590.97
2019-05-13T05:01:08.653Z,103592.55
2019-05-13T05:03:45.713Z,103593.48
2019-05-13T05:06:17.359Z,103595.09
2019-05-13T05:09:05.127Z,103598.60
2019-05-13T05:11:52.905Z,103596.25
2019-05-13T05:14:57.930Z,103594.57
2019-05-13T05:17:44.015Z,103585.14
2019-05-13T05:20:32.233Z,103589.12
2019-05-13T05:23:12.445Z,103595.98
2019-05-13T05:25:55.258Z,103595.94
2019-05-13T05:28:46.276Z,103590.96
2019-05-13T05:31:34.009Z,103603.38
2019-05-13T05:34:23.572Z,103598.20
2019-05-13T05:37:03.591Z,103606.68
2019-05-13T05:39:31.829Z,103603.00
2019-05-13T05:42:02.244Z,103596.09
2019-05-13T05:44:32.391Z,103592.68
2019-05-13T05:47:02.847Z,103594.09
2019-05-13T05:49:32.037Z,103599.48
2019-05-13T05:52:05.817Z,103604.60
2019-05-13T05:54:37.931Z,103605.81
2019-05-13T05:57:06.783Z,103607.59
2019-05-13T05:59:34.997Z,103605.45
2019-05-13T06:02:03.684Z,103610.88
2019-05-13T06:04:32.639Z,103617.52
2019-05-13T06:07:03.206Z,103615.41
2019-05-13T06:09:32.200Z,103605.89
2019-05-13T06:12:01.713Z,103612.33
2019-05-13T06:14:32.672Z,103607.03
2019-05-13T06:17:02.688Z,103612.97
2019-05-13T06:19:31.870Z,103608.88
2019-05-13T06:22:02.160Z,103614.92
2019-05-13T06:24:31.248Z,103610.04
2019-05-13T06:27:01.507Z,103604.51
2019-05-13T06:29:31.606Z,103612.73
2019-05-13T06:32:15.055Z,103611.64
2019-05-13T06:34:32.801Z,103616.25
2019-05-13T06:37:01.768Z,103617.14
2019-05-13T06:39:31.722Z,103617.06
2019-05-13T06:42:02.354Z,103627.44
2019-05-13T06:44:31.681Z,103620.19
2019-05-13T06:47:02.501Z,103625.81
2019-05-13T06:49:32.212Z,103627.30
2019-05-13T06:52:01.743Z,103625.72
2019-05-13T06:54:32.524Z,103620.96
2019-05-13T06:57:03.439Z,103622.52
2019-05-13T06:59:31.587Z,103625.67
2019-05-13T07:02:01.815Z,103627.98
2019-05-13T07:04:29.484Z,103634.47
2019-05-13T07:07:09.840Z,103635.71
2019-05-13T07:09:27.666Z,103629.76
2019-05-13T07:11:56.984Z,103635.30
2019-05-13T07:14:25.406Z,103629.47
2019-05-13T07:16:53.639Z,103641.69
2019-05-13T07:19:23.875Z,103642.98
2019-05-13T07:21:52.161Z,103641.44
2019-05-13T07:24:21.456Z,103622.41
2019-05-13T07:26:52.160Z,103638.56
2019-05-13T07:29:20.319Z,103640.72
2019-05-13T07:31:48.905Z,103636.98
2019-05-13T07:34:17.133Z,103638.42
2019-05-13T07:36:45.360Z,103645.38
2019-05-13T07:39:13.591Z,103639.59
2019-05-13T07:41:43.138Z,103635.48
2019-05-13T07:44:12.025Z,103636.65
2019-05-13T07:46:42.745Z,103639.53
2019-05-13T07:49:11.985Z,103642.52
2019-05-13T07:51:42.043Z,103645.55
2019-05-13T07:54:11.423Z,103651.50
2019-05-13T07:56:42.389Z,103661.28
2019-05-13T07:59:12.048Z,103651.59
2019-05-13T08:01:41.700Z,103653.75
2019-05-13T08:04:21.764Z,103653.00
2019-05-13T08:06:41.659Z,103653.39
2019-05-13T08:09:12.562Z,103658.58
2019-05-13T08:11:56.259Z,103656.56
2019-05-13T08:14:12.208Z,103654.06
2019-05-13T08:16:39.570Z,103650.52
2019-05-13T08:19:07.796Z,103644.91
2019-05-13T08:21:36.003Z,103642.84
2019-05-13T08:24:04.289Z,103652.61
2019-05-13T08:26:32.551Z,103647.56
2019-05-13T08:29:04.927Z,103644.06
2019-05-13T08:31:32.234Z,103648.12
2019-05-13T08:34:02.490Z,103641.97
2019-05-13T08:36:32.727Z,103632.20
2019-05-13T08:39:02.648Z,103637.63
2019-05-13T08:41:32.202Z,103624.05
2019-05-13T08:44:01.707Z,103637.17
2019-05-13T08:46:32.235Z,103637.84
2019-05-13T08:49:03.692Z,103622.80
2019-05-13T08:51:32.293Z,103626.91
2019-05-13T08:54:02.315Z,103641.90
2019-05-13T08:56:32.489Z,103633.52
2019-05-13T08:59:01.190Z,103637.63
2019-05-13T09:01:31.843Z,103635.29
2019-05-13T09:04:02.291Z,103631.72
2019-05-13T09:06:31.254Z,103630.33
2019-05-13T09:08:59.576Z,103635.83
2019-05-13T09:11:27.887Z,103620.30
2019-05-13T09:13:56.094Z,103627.20
2019-05-13T09:16:24.393Z,103630.36
2019-05-13T09:18:52.563Z,103623.74
2019-05-13T09:21:22.477Z,103629.85
2019-05-13T09:23:51.539Z,103632.09
2019-05-13T09:26:22.363Z,103631.17
2019-05-13T09:28:52.012Z,103631.54
2019-05-13T09:31:22.065Z,103638.68
2019-05-13T09:33:51.918Z,103621.38
2019-05-13T09:36:21.781Z,103634.08
2019-05-13T09:38:52.325Z,103621.41
2019-05-13T09:41:21.433Z,103631.03
2019-05-13T09:43:51.392Z,103636.91
2019-05-13T09:46:19.514Z,103637.52
2019-05-13T09:48:47.764Z,103635.88
2019-05-13T09:51:15.995Z,103631.38
2019-05-13T09:53:44.211Z,103627.72
2019-05-13T09:56:12.425Z,103636.18
2019-05-13T09:58:42.022Z,103623.49
2019-05-13T10:01:12.379Z,103621.05
2019-05-13T10:03:53.883Z,103614.77
2019-05-13T10:06:12.633Z,103616.19
2019-05-13T10:08:41.798Z,103623.13
2019-05-13T10:11:12.303Z,103613.77
2019-05-13T10:13:40.069Z,103615.17
2019-05-13T10:16:08.303Z,103614.59
2019-05-13T10:18:36.517Z,103622.70
2019-05-13T10:21:04.720Z,103622.70
2019-05-13T10:23:33.435Z,103614.34
2019-05-13T10:26:04.776Z,103607.05
2019-05-13T10:28:32.981Z,103603.33
2019-05-13T10:31:01.218Z,103607.16
2019-05-13T10:33:31.707Z,103611.93
2019-05-13T10:35:59.372Z,103616.17
2019-05-13T10:38:28.152Z,103607.17
2019-05-13T10:40:56.400Z,103611.80
2019-05-13T10:43:31.464Z,103608.08
2019-05-13T10:45:54.529Z,103612.49
2019-05-13T10:48:23.016Z,103604.75
2019-05-13T10:53:22.311Z,103599.19
2019-05-13T10:55:52.208Z,103606.32
2019-05-13T10:58:23.449Z,103599.69
2019-05-13T11:00:53.100Z,103598.61
2019-05-13T11:03:23.037Z,103598.05
2019-05-13T11:05:52.554Z,103602.78
2019-05-13T11:08:22.143Z,103596.78
2019-05-13T11:10:53.206Z,103604.42
2019-05-13T11:13:23.317Z,103604.50
2019-05-13T11:15:57.101Z,103594.64
2019-05-13T11:18:23.709Z,103592.27
2019-05-13T11:20:51.077Z,103589.72
2019-05-13T11:23:19.324Z,103594.57
2019-05-13T11:25:47.557Z,103587.70
2019-05-13T11:28:15.763Z,103595.63
2019-05-13T11:30:44.263Z,103593.37
2019-05-13T11:33:12.796Z,103597.92
2019-05-13T11:35:41.472Z,103596.17
2019-05-13T11:38:12.155Z,103586.53
2019-05-13T11:40:39.874Z,103597.55
2019-05-13T11:43:08.072Z,103586.38
2019-05-13T11:45:36.586Z,103584.75
2019-05-13T11:48:05.006Z,103586.68
2019-05-13T11:50:33.528Z,103589.58
2019-05-13T11:53:05.983Z,103595.56
2019-05-13T11:55:31.939Z,103581.70
2019-05-13T11:58:02.864Z,103578.53
2019-05-13T12:00:47.804Z,103573.00
2019-05-13T12:03:16.214Z,103566.33
2019-05-13T12:05:44.836Z,103574.16
2019-05-13T12:08:13.072Z,103571.05
2019-05-13T12:10:43.988Z,103571.14
2019-05-13T12:13:12.519Z,103572.06
2019-05-13T12:18:12.688Z,103593.37
2019-05-13T12:20:42.724Z,103577.75
2019-05-13T12:23:13.029Z,103554.56
2019-05-13T12:25:43.797Z,103558.47
2019-05-13T12:28:11.470Z,103557.36
2019-05-13T12:30:41.781Z,103552.91
2019-05-13T12:33:12.959Z,103550.86
2019-05-13T12:35:39.629Z,103547.50
2019-05-13T12:38:07.866Z,103542.34
2019-05-13T12:40:36.091Z,103552.81
2019-05-13T12:43:04.344Z,103541.27
2019-05-13T12:45:32.540Z,103531.84
2019-05-13T12:48:03.302Z,103532.19
2019-05-13T12:50:32.877Z,103532.33
2019-05-13T12:53:02.745Z,103529.09
2019-05-13T12:55:33.158Z,103530.88
2019-05-13T12:58:02.640Z,103535.23
2019-05-13T13:00:32.898Z,103537.97
2019-05-13T13:03:02.047Z,103526.42
2019-05-13T13:05:36.199Z,103528.98
2019-05-13T13:08:18.301Z,103523.27
2019-05-13T13:10:34.441Z,103510.33
2019-05-13T13:13:02.199Z,103507.77
2019-05-13T13:15:38.397Z,103503.56
2019-05-13T13:18:02.572Z,103514.75
2019-05-13T13:20:33.548Z,103513.38
2019-05-13T13:23:04.305Z,103505.70
2019-05-13T13:25:33.608Z,103505.33
2019-05-13T13:28:10.643Z,103493.97
2019-05-13T13:30:35.175Z,103495.06
2019-05-13T13:33:02.809Z,103491.78
2019-05-13T13:35:33.746Z,103492.86
2019-05-13T13:38:04.134Z,103497.47
2019-05-13T13:40:34.738Z,103505.52
2019-05-13T13:43:05.300Z,103485.20
2019-05-13T13:45:37.415Z,103479.73
2019-05-13T13:48:03.965Z,103484.50
2019-05-13T13:50:33.556Z,103486.79
2019-05-13T13:53:00.729Z,103484.73
2019-05-13T13:55:31.433Z,103476.65
2019-05-13T13:57:58.828Z,103482.01
2019-05-13T14:00:38.114Z,103474.59
2019-05-13T14:02:56.981Z,103472.09
2019-05-13T14:05:25.193Z,103469.16
2019-05-13T14:07:00.434Z,103560.94
2019-05-13T14:07:02.788Z,103605.64
2019-05-13T14:07:53.394Z,103462.33
2019-05-13T14:10:22.080Z,103461.75
2019-05-13T14:12:52.434Z,103467.52
2019-05-13T14:15:21.539Z,103471.43
2019-05-13T14:17:51.718Z,103466.20
2019-05-13T14:20:21.927Z,103482.07
2019-05-13T14:22:56.510Z,103473.36
2019-05-13T14:25:22.238Z,103458.53
2019-05-13T14:27:49.680Z,103465.23
2019-05-13T14:30:17.942Z,103440.94
2019-05-13T14:32:46.160Z,103453.94
2019-05-13T14:35:14.377Z,103462.67
2019-05-13T14:37:42.605Z,103456.41
2019-05-13T14:40:14.161Z,103454.16
2019-05-13T14:42:42.663Z,103450.15
2019-05-13T14:45:12.229Z,103448.83
2019-05-13T14:47:40.557Z,103438.02
2019-05-13T14:50:08.896Z,103449.12
2019-05-13T14:52:37.167Z,103443.66
2019-05-13T14:55:07.127Z,103441.22
2019-05-13T15:00:11.181Z,103447.28
2019-05-13T15:02:42.149Z,103434.70
2019-05-13T15:05:12.008Z,103441.08
2019-05-13T15:07:52.811Z,103429.84
2019-05-13T15:10:21.913Z,103421.92
2019-05-13T15:12:52.380Z,103426.59
2019-05-13T15:15:22.232Z,103432.51
2019-05-13T15:17:51.877Z,103432.51
2019-05-13T15:20:21.785Z,103428.92
2019-05-13T15:22:51.900Z,103428.22
2019-05-13T15:25:22.080Z,103436.66
2019-05-13T15:27:52.675Z,103432.18
2019-05-13T15:30:21.785Z,103426.20
2019-05-13T15:32:52.329Z,103438.75
2019-05-13T15:35:19.978Z,103435.47
2019-05-13T15:37:48.476Z,103436.27
2019-05-13T15:40:16.678Z,103443.72
2019-05-13T15:42:45.534Z,103441.64
2019-05-13T15:45:14.517Z,103439.58
2019-05-13T15:47:43.033Z,103437.75
2019-05-13T15:50:12.432Z,103255.34
2019-05-13T15:52:43.191Z,103437.50
2019-05-13T15:55:13.876Z,103428.55
2019-05-13T15:57:42.939Z,103441.39
2019-05-13T16:00:12.692Z,103433.35
2019-05-13T16:02:42.290Z,103436.76
2019-05-13T16:05:12.052Z,103428.88
2019-05-13T16:07:41.807Z,103421.58
2019-05-13T16:10:11.445Z,103446.29
2019-05-13T16:12:40.100Z,103442.34
2019-05-13T16:15:12.394Z,103430.41
2019-05-13T16:17:44.513Z,103433.89
2019-05-13T16:20:09.966Z,103433.42
2019-05-13T16:22:38.373Z,103426.85
2019-05-13T16:25:07.519Z,103410.89
2019-05-13T16:27:35.725Z,103424.20
2019-05-13T16:30:06.393Z,103433.50
2019-05-13T16:32:34.700Z,103436.11
2019-05-13T16:35:03.088Z,103428.62
2019-05-13T16:37:32.157Z,103428.89
2019-05-13T16:40:00.665Z,103441.66
2019-05-13T16:42:31.227Z,103441.42
2019-05-13T16:44:58.826Z,103429.83
2019-05-13T16:47:27.088Z,103426.08
2019-05-13T16:49:55.338Z,103436.31
2019-05-13T16:52:23.539Z,103436.83
2019-05-13T16:54:53.226Z,103446.08
2019-05-13T16:57:21.754Z,103431.97
2019-05-13T16:59:51.713Z,103436.61
2019-05-13T17:02:20.075Z,103437.91
2019-05-13T17:04:48.308Z,103427.01
2019-05-13T17:07:16.528Z,103435.69
2019-05-13T17:09:45.032Z,103424.62
2019-05-13T17:12:15.900Z,103425.20
2019-05-13T17:14:44.026Z,103436.98
2019-05-13T17:17:12.754Z,103429.50
2019-05-13T17:19:42.233Z,103429.93
2019-05-13T17:22:10.706Z,103436.59
2019-05-13T17:24:38.950Z,103441.92
2019-05-13T17:27:07.920Z,103439.77
2019-05-13T17:29:36.254Z,103434.73
2019-05-13T17:32:04.801Z,103433.17
2019-05-13T17:34:33.105Z,103442.28
2019-05-13T17:37:02.619Z,103432.34
2019-05-13T17:39:32.241Z,103436.14
2019-05-13T17:42:01.495Z,103446.13
2019-05-13T17:44:31.751Z,103440.81
2019-05-13T17:47:01.635Z,103436.14
2019-05-13T17:49:31.786Z,103437.42
2019-05-13T17:52:02.403Z,103441.06
2019-05-13T17:54:31.877Z,103438.81
2019-05-13T17:57:01.952Z,103438.38
2019-05-13T17:59:31.570Z,103452.47
2019-05-13T18:02:02.604Z,103441.47
2019-05-13T18:04:31.392Z,103434.14
2019-05-13T18:07:01.643Z,103432.58
2019-05-13T18:09:31.940Z,103435.59
2019-05-13T18:12:02.399Z,103444.05
2019-05-13T18:14:30.477Z,103436.89
2019-05-13T18:17:01.356Z,103429.12
2019-05-13T18:19:31.483Z,103435.72
2019-05-13T18:21:59.059Z,103443.22
2019-05-13T18:24:27.294Z,103440.32
2019-05-13T18:26:55.515Z,103443.53
2019-05-13T18:29:24.135Z,103446.63
2019-05-13T18:31:52.819Z,103443.63
2019-05-13T18:34:21.564Z,103445.86
2019-05-13T18:36:51.630Z,103437.86
2019-05-13T18:39:21.608Z,103447.74
2019-05-13T18:41:50.037Z,103443.45
2019-05-13T18:44:18.435Z,103447.24
2019-05-13T18:46:46.643Z,103449.80
2019-05-13T18:49:14.913Z,103434.31
2019-05-13T18:51:45.928Z,103453.39
2019-05-13T18:54:14.729Z,103452.31
2019-05-13T18:56:46.126Z,103456.22
2019-05-13T18:59:13.231Z,103457.58
2019-05-13T19:01:41.660Z,103465.55
2019-05-13T19:04:11.477Z,103465.20
2019-05-13T19:06:42.309Z,103459.50
2019-05-13T19:09:11.230Z,103468.94
2019-05-13T19:11:42.408Z,103463.70
2019-05-13T19:14:12.093Z,103467.50
2019-05-13T19:16:41.999Z,103475.23
2019-05-13T19:19:13.206Z,103479.64
2019-05-13T19:21:41.666Z,103476.83
2019-05-13T19:24:11.131Z,103484.25
2019-05-13T19:26:41.637Z,103485.19
2019-05-13T19:29:11.489Z,103487.55
2019-05-13T19:31:41.877Z,103485.28
2019-05-13T19:34:12.168Z,103490.75
2019-05-13T19:36:40.750Z,103493.46
2019-05-13T19:39:11.197Z,103494.47
2019-05-13T19:41:38.905Z,103491.60
2019-05-13T19:44:07.154Z,103492.70
2019-05-13T19:46:35.355Z,103482.44
2019-05-13T19:49:03.574Z,103487.69
2019-05-13T19:51:32.289Z,103495.40
2019-05-13T19:54:01.327Z,103491.00
2019-05-13T19:56:31.789Z,103495.42
2019-05-13T19:59:01.577Z,103493.75
2019-05-13T20:01:32.022Z,103498.48
2019-05-13T20:04:02.120Z,103503.04
2019-05-13T20:06:31.847Z,103495.53
2019-05-13T20:09:01.516Z,103515.97
2019-05-13T20:11:29.492Z,103502.27
2019-05-13T20:13:58.124Z,103501.15
2019-05-13T20:16:26.340Z,103497.58
2019-05-13T20:18:54.546Z,103492.94
2019-05-13T20:21:22.792Z,103493.34
2019-05-13T20:23:51.853Z,103495.30
2019-05-13T20:26:21.701Z,103494.98
2019-05-13T20:28:51.290Z,103492.39
2019-05-13T20:31:21.633Z,103496.38
2019-05-13T20:33:51.535Z,103494.69
2019-05-13T20:36:21.996Z,103491.98
2019-05-13T20:38:51.609Z,103488.20
2019-05-13T20:41:19.453Z,103490.66
2019-05-13T20:43:47.658Z,103495.56
2019-05-13T20:46:15.885Z,103491.47
2019-05-13T20:48:44.095Z,103497.87
2019-05-13T20:51:13.103Z,103490.14
2019-05-13T20:53:41.418Z,103488.09
2019-05-13T20:56:09.597Z,103495.05
2019-05-13T20:58:37.810Z,103496.08
2019-05-13T21:01:06.026Z,103492.50
2019-05-13T21:03:35.202Z,103497.56
2019-05-13T21:06:03.413Z,103502.73
2019-05-13T21:08:32.246Z,103501.75
2019-05-13T21:11:02.315Z,103496.98
2019-05-13T21:13:31.856Z,103490.13
2019-05-13T21:16:02.359Z,103494.63
2019-05-13T21:18:31.558Z,103497.75
2019-05-13T21:21:00.050Z,103485.49
2019-05-13T21:23:28.609Z,103490.03
2019-05-13T21:25:56.803Z,103491.09
2019-05-13T21:28:25.366Z,103484.80
2019-05-13T21:30:53.612Z,103488.94
2019-05-13T21:33:22.317Z,103488.86
2019-05-13T21:35:51.131Z,103495.09
2019-05-13T21:38:22.199Z,103495.96
2019-05-13T21:40:52.071Z,103489.27
2019-05-13T21:43:21.578Z,103484.97
2019-05-13T21:45:52.277Z,103495.52
2019-05-13T21:48:21.768Z,103487.77
2019-05-13T21:50:51.659Z,103485.72
2019-05-13T21:53:21.748Z,103487.49
2019-05-13T21:55:52.067Z,103476.81
2019-05-13T21:58:22.215Z,103480.48
2019-05-13T22:00:52.021Z,103479.97
2019-05-13T22:03:20.580Z,103477.25
2019-05-13T22:05:51.320Z,103484.52
2019-05-13T22:08:18.758Z,103479.23
2019-05-13T22:10:46.991Z,103480.62
2019-05-13T22:13:15.193Z,103482.70
2019-05-13T22:15:43.404Z,103477.38
2019-05-13T22:18:11.633Z,103478.09
2019-05-13T22:20:50.047Z,103483.31
2019-05-13T22:23:11.801Z,103475.08
2019-05-13T22:25:43.425Z,103478.19
2019-05-13T22:28:11.662Z,103474.75
2019-05-13T22:30:41.251Z,103477.03
2019-05-13T22:33:12.301Z,103475.13
2019-05-13T22:35:41.636Z,103473.08
2019-05-13T22:38:12.157Z,103474.17
2019-05-13T22:40:41.993Z,103470.73
2019-05-13T22:43:12.112Z,103469.20
2019-05-13T22:45:41.948Z,103469.91
2019-05-13T22:48:12.080Z,103471.11
2019-05-13T22:50:41.732Z,103477.69
2019-05-13T22:53:11.985Z,103474.95
2019-05-13T22:55:41.785Z,103467.23
2019-05-13T22:58:09.913Z,103471.70
2019-05-13T23:00:38.127Z,103471.89
2019-05-13T23:03:06.369Z,103459.34
2019-05-13T23:05:34.548Z,103466.41
2019-05-13T23:08:03.154Z,103471.05
2019-05-13T23:10:31.926Z,103466.05
2019-05-13T23:13:02.121Z,103463.33
2019-05-13T23:15:30.340Z,103461.47
2019-05-13T23:17:58.567Z,103463.03
2019-05-13T23:20:27.058Z,103457.87
2019-05-13T23:22:56.223Z,103460.81
2019-05-13T23:25:24.722Z,103454.16
2019-05-13T23:27:52.931Z,103454.16
2019-05-13T23:30:21.140Z,103465.84
2019-05-13T23:32:51.616Z,103462.41
2019-05-13T23:35:21.707Z,103461.20
2019-05-13T23:37:51.010Z,103420.03
2019-05-13T23:40:19.251Z,103461.40
2019-05-13T23:42:47.503Z,103465.19
2019-05-13T23:45:16.070Z,103476.89
2019-05-13T23:47:44.281Z,103466.94
2019-05-13T23:50:12.872Z,103467.64
2019-05-13T23:52:41.860Z,103465.59
2019-05-13T23:55:10.993Z,103469.90
2019-05-13T23:57:41.943Z,103462.85
